Time;durP1;ratioP1;P1;durP2;ratioP2;P2;SDS_P1;SDS_P2;PMS_P1;PMS_P2;Temp;Humidity;BMP_temperature;BMP_pressure;BME280_temperature;BME280_humidity;BME280_pressure;Samples;Min_cycle;Max_cycle;Signal;HPM_P1;HPM_P2
2021/07/27 00:00:11;;;;;;;5.73;4.47;;;;;;;17.49;85.81;100525.22;679921;29;1134;-80
2021/07/27 00:00:32;;;;;;;6.43;4.60;;;;;;;17.51;85.30;100526.00;682648;28;1594;-80
2021/07/27 00:00:52;;;;;;;5.22;4.28;;;;;;;17.51;86.09;100515.44;682853;28;3677;-81
2021/07/27 00:01:13;;;;;;;6.00;4.73;;;;;;;17.49;86.91;100528.72;683015;28;2641;-80
2021/07/27 00:01:33;;;;;;;6.60;5.10;;;;;;;17.46;87.21;100528.84;680996;28;2085;-80
2021/07/27 00:01:53;;;;;;;5.73;4.57;;;;;;;17.45;86.56;100528.88;679931;28;3452;-80
2021/07/27 00:02:14;;;;;;;5.40;4.50;;;;;;;17.43;86.63;100528.94;682685;28;1614;-81
2021/07/27 00:02:34;;;;;;;5.30;4.33;;;;;;;17.45;86.29;100529.75;682781;28;4355;-81
2021/07/27 00:02:54;;;;;;;5.53;4.20;;;;;;;17.43;86.12;100534.22;683711;28;1727;-81
2021/07/27 00:03:15;;;;;;;5.97;4.50;;;;;;;17.41;86.54;100524.63;681172;29;1881;-81
2021/07/27 00:03:37;;;;;;;5.93;4.53;;;;;;;17.38;86.57;100530.88;681340;28;1248;-80
2021/07/27 00:03:58;;;;;;;6.13;4.43;;;;;;;17.39;86.07;100531.72;681389;28;1361;-81
2021/07/27 00:04:18;;;;;;;6.30;4.40;;;;;;;17.39;86.08;100534.38;681154;29;1171;-80
2021/07/27 00:04:38;;;;;;;6.22;4.70;;;;;;;17.39;86.42;100531.72;681738;29;2021;-81
2021/07/27 00:04:59;;;;;;;5.60;4.33;;;;;;;17.38;86.40;100527.34;683775;28;1696;-80
2021/07/27 00:05:19;;;;;;;5.80;4.20;;;;;;;17.41;86.13;100540.47;678528;29;3846;-81
2021/07/27 00:05:40;;;;;;;5.80;4.30;;;;;;;17.43;86.20;100536.00;677740;29;4412;-81
2021/07/27 00:06:00;;;;;;;5.50;4.30;;;;;;;17.44;85.42;100533.28;671654;29;1602;-81
2021/07/27 00:06:21;;;;;;;5.65;4.20;;;;;;;17.44;85.43;100545.66;681964;28;1313;-81
2021/07/27 00:06:41;;;;;;;5.30;4.18;;;;;;;17.45;85.63;100528.88;679534;29;1260;-80
2021/07/27 00:07:02;;;;;;;5.47;4.40;;;;;;;17.44;85.78;100533.28;678358;29;2611;-80
2021/07/27 00:07:22;;;;;;;5.40;4.30;;;;;;;17.43;86.26;100533.34;683215;28;1294;-80
2021/07/27 00:07:43;;;;;;;5.93;4.40;;;;;;;17.44;86.02;100532.44;680855;28;1213;-81
2021/07/27 00:08:03;;;;;;;6.55;4.68;;;;;;;17.46;85.23;100531.47;681888;28;1390;-80
2021/07/27 00:08:24;;;;;;;5.23;4.40;;;;;;;17.49;85.39;100536.66;685658;28;4097;-80
2021/07/27 00:08:44;;;;;;;5.85;4.40;;;;;;;17.48;86.23;100529.63;681214;28;4522;-81
2021/07/27 00:09:04;;;;;;;5.90;4.50;;;;;;;17.45;86.60;100539.47;680837;28;1791;-81
2021/07/27 00:09:25;;;;;;;6.20;4.35;;;;;;;17.42;86.74;100536.91;675781;29;1845;-80
2021/07/27 00:09:45;;;;;;;5.53;4.30;;;;;;;17.41;86.20;100537.84;678550;29;1858;-80
2021/07/27 00:10:09;;;;;;;7.00;4.40;;;;;;;17.42;86.10;100536.91;678168;29;1914;-80
2021/07/27 00:10:32;;;;;;;6.20;4.30;;;;;;;17.40;86.42;100536.97;683299;28;1527;-81
2021/07/27 00:10:53;;;;;;;6.20;4.47;;;;;;;17.41;85.87;100536.06;684820;28;3882;-80
2021/07/27 00:11:14;;;;;;;5.28;4.40;;;;;;;17.44;86.29;100529.81;684717;28;1332;-80
2021/07/27 00:11:34;;;;;;;6.10;4.60;;;;;;;17.43;86.27;100528.06;682288;28;4373;-81
2021/07/27 00:11:55;;;;;;;5.55;4.47;;;;;;;17.47;85.50;100527.03;682959;28;2786;-80
2021/07/27 00:12:15;;;;;;;5.63;4.50;;;;;;;17.46;85.34;100531.47;682996;28;4132;-80
2021/07/27 00:12:35;;;;;;;5.53;4.30;;;;;;;17.47;85.49;100533.22;677325;29;1682;-80
2021/07/27 00:12:56;;;;;;;6.10;4.60;;;;;;;17.51;85.24;100533.94;674863;29;4050;-81
2021/07/27 00:13:17;;;;;;;5.80;4.50;;;;;;;17.54;84.87;100523.25;678370;28;1164;-81
2021/07/27 00:13:39;;;;;;;5.57;4.50;;;;;;;17.53;84.74;100535.63;678994;29;1955;-80
2021/07/27 00:14:00;;;;;;;6.05;4.50;;;;;;;17.55;84.63;100537.34;672261;29;1246;-80
2021/07/27 00:14:20;;;;;;;6.63;4.20;;;;;;;17.54;85.09;100531.19;672395;29;1335;-80
2021/07/27 00:14:40;;;;;;;5.57;4.10;;;;;;;17.49;85.42;100533.16;676527;29;4354;-80
2021/07/27 00:15:01;;;;;;;4.93;4.00;;;;;;;17.50;84.84;100540.13;677567;29;1775;-80
2021/07/27 00:15:22;;;;;;;5.45;4.15;;;;;;;17.47;85.12;100527.94;676021;29;2271;-80
2021/07/27 00:15:43;;;;;;;5.63;4.30;;;;;;;17.44;85.64;100527.16;675565;29;3785;-80
2021/07/27 00:16:04;;;;;;;5.55;4.10;;;;;;;17.41;85.62;100545.78;677940;29;1740;-80
2021/07/27 00:16:24;;;;;;;5.70;4.35;;;;;;;17.38;85.86;100525.59;676623;29;1314;-81
2021/07/27 00:16:45;;;;;;;5.37;4.40;;;;;;;17.33;86.05;100538.97;676163;29;1420;-80
2021/07/27 00:17:05;;;;;;;5.65;4.32;;;;;;;17.30;86.16;100540.84;681506;28;1562;-81
2021/07/27 00:17:28;;;;;;;5.77;4.63;;;;;;;17.26;86.13;100537.44;680277;28;4412;-80
2021/07/27 00:17:49;;;;;;;5.43;4.13;;;;;;;17.21;86.52;100528.84;683496;28;4864;-81
2021/07/27 00:18:09;;;;;;;5.55;4.20;;;;;;;17.21;86.20;100534.13;685888;28;1850;-81
2021/07/27 00:18:32;;;;;;;5.87;4.20;;;;;;;17.26;85.84;100536.59;680638;28;4126;-80
2021/07/27 00:18:53;;;;;;;5.47;4.38;;;;;;;17.28;86.11;100534.75;674545;29;4292;-80
2021/07/27 00:19:13;;;;;;;6.10;4.30;;;;;;;17.26;86.24;100531.31;675569;29;1701;-81
2021/07/27 00:19:34;;;;;;;6.22;4.38;;;;;;;17.23;86.56;100529.63;678103;29;1869;-81
2021/07/27 00:19:57;;;;;;;5.63;4.60;;;;;;;17.24;86.35;100536.66;678113;29;1733;-80
2021/07/27 00:20:18;;;;;;;5.70;4.40;;;;;;;17.30;86.11;100525.84;680986;28;3866;-80
2021/07/27 00:20:38;;;;;;;6.10;4.50;;;;;;;17.38;85.81;100524.72;684246;28;4352;-80
2021/07/27 00:21:05;;;;;;;6.85;4.63;;;;;;;17.40;85.74;100536.09;680725;28;1930;-81
2021/07/27 00:21:26;;;;;;;6.90;4.88;;;;;;;17.38;85.62;100536.16;678174;29;1154;-80
2021/07/27 00:21:46;;;;;;;6.57;4.70;;;;;;;17.38;85.47;100530.00;679729;28;1436;-82
2021/07/27 00:22:06;;;;;;;6.18;4.32;;;;;;;17.40;85.40;100536.09;680362;28;2133;-80
2021/07/27 00:22:27;;;;;;;6.27;4.27;;;;;;;17.43;84.73;100534.22;684108;28;1460;-81
2021/07/27 00:22:47;;;;;;;6.18;4.40;;;;;;;17.43;85.65;100533.34;685114;28;4498;-80
2021/07/27 00:23:08;;;;;;;5.37;4.27;;;;;;;17.46;84.90;100531.47;686664;28;1616;-80
2021/07/27 00:23:28;;;;;;;5.20;4.22;;;;;;;17.49;84.60;100530.50;687245;28;4417;-80
2021/07/27 00:23:49;;;;;;;7.07;4.77;;;;;;;17.48;84.46;100534.06;683482;28;1722;-81
2021/07/27 00:24:10;;;;;;;5.50;4.50;;;;;;;17.43;85.33;100531.59;685935;28;1434;-80
2021/07/27 00:24:31;;;;;;;5.70;4.45;;;;;;;17.38;85.81;100540.56;683821;28;1246;-81
2021/07/27 00:24:53;;;;;;;5.88;4.32;;;;;;;17.33;85.69;100538.97;679937;28;1486;-80
2021/07/27 00:25:14;;;;;;;5.80;4.40;;;;;;;17.30;85.77;100528.50;677808;28;1970;-81
2021/07/27 00:25:35;;;;;;;6.20;4.50;;;;;;;17.29;85.77;100541.75;678239;29;3462;-80
2021/07/27 00:25:55;;;;;;;5.70;4.43;;;;;;;17.27;86.06;100536.53;677384;29;4183;-81
2021/07/27 00:26:16;;;;;;;6.10;4.50;;;;;;;17.28;86.18;100535.63;680366;29;1478;-81
2021/07/27 00:26:36;;;;;;;6.30;4.63;;;;;;;17.25;86.38;100532.22;679125;29;4382;-80
2021/07/27 00:26:58;;;;;;;5.90;4.63;;;;;;;17.24;86.49;100528.72;681987;28;1497;-80
2021/07/27 00:27:18;;;;;;;5.97;4.72;;;;;;;17.25;86.65;100534.84;674876;29;2555;-80
2021/07/27 00:27:39;;;;;;;6.03;4.60;;;;;;;17.24;86.16;100528.72;675792;29;1502;-80
2021/07/27 00:27:59;;;;;;;6.57;4.50;;;;;;;17.24;86.27;100525.19;675176;29;2070;-81
2021/07/27 00:28:20;;;;;;;5.78;4.50;;;;;;;17.28;85.67;100538.28;673101;29;1411;-81
2021/07/27 00:28:41;;;;;;;5.70;4.37;;;;;;;17.26;86.84;100532.16;675363;29;1481;-80
2021/07/27 00:29:02;;;;;;;5.35;4.28;;;;;;;17.25;86.34;100537.50;681260;28;1205;-81
2021/07/27 00:29:22;;;;;;;5.90;4.47;;;;;;;17.29;85.64;100537.34;680561;28;1027;-81
2021/07/27 00:29:43;;;;;;;6.23;4.50;;;;;;;17.32;85.98;100537.25;678662;28;4519;-80
2021/07/27 00:30:06;;;;;;;6.35;4.70;;;;;;;17.35;85.72;100539.78;680433;28;1644;-81
2021/07/27 00:30:26;;;;;;;5.72;4.60;;;;;;;17.35;86.31;100534.50;678666;28;2876;-80
2021/07/27 00:30:47;;;;;;;5.82;4.47;;;;;;;17.33;85.49;100538.97;676159;29;1613;-81
2021/07/27 00:31:18;;;;;;;5.78;4.20;;;;;;;17.32;86.21;100531.06;675916;28;1442;-81
2021/07/27 00:31:38;;;;;;;6.57;4.85;;;;;;;17.30;86.41;100539.06;677734;29;1451;-80
2021/07/27 00:31:59;;;;;;;6.20;4.77;;;;;;;17.34;85.51;100537.19;678375;29;1583;-80
2021/07/27 00:32:19;;;;;;;6.53;4.53;;;;;;;17.42;85.35;100547.47;681268;29;1517;-80
2021/07/27 00:32:41;;;;;;;6.15;4.60;;;;;;;17.47;84.90;100527.03;680218;28;4372;-80
2021/07/27 00:33:01;;;;;;;5.95;4.57;;;;;;;17.50;84.45;100532.22;680592;29;4007;-81
2021/07/27 00:33:22;;;;;;;5.43;4.27;;;;;;;17.52;84.34;100533.88;680917;28;1429;-80
2021/07/27 00:33:43;;;;;;;6.55;4.65;;;;;;;17.50;85.11;100538.38;680646;28;1740;-80
2021/07/27 00:34:05;;;;;;;6.63;4.80;;;;;;;17.46;85.19;100533.22;679116;29;1388;-81
2021/07/27 00:34:26;;;;;;;5.75;4.47;;;;;;;17.44;84.89;100530.66;675037;29;1415;-81
2021/07/27 00:34:46;;;;;;;6.32;4.57;;;;;;;17.39;85.55;100537.91;675325;29;3703;-81
2021/07/27 00:35:08;;;;;;;7.50;4.43;;;;;;;17.40;85.37;100536.09;683675;28;1643;-81
2021/07/27 00:35:31;;;;;;;6.47;4.55;;;;;;;17.36;86.07;100532.69;678498;28;4375;-80
2021/07/27 00:35:51;;;;;;;6.30;4.63;;;;;;;17.29;85.73;100537.34;680916;28;1217;-81
2021/07/27 00:36:11;;;;;;;5.80;4.57;;;;;;;17.27;86.04;100531.25;678223;29;1141;-80
2021/07/27 00:36:32;;;;;;;5.68;4.35;;;;;;;17.30;85.38;100532.94;680386;28;3258;-81
2021/07/27 00:36:53;;;;;;;6.40;4.50;;;;;;;17.34;85.00;100532.75;672750;29;2540;-81
2021/07/27 00:37:17;;;;;;;5.80;4.32;;;;;;;17.38;85.47;100530.88;675631;29;4299;-81
2021/07/27 00:37:42;;;;;;;6.95;4.75;;;;;;;17.34;86.38;100530.13;675389;29;1667;-80
2021/07/27 00:38:08;;;;;;;6.18;4.50;;;;;;;17.32;86.21;100536.38;675335;29;2132;-81
2021/07/27 00:38:29;;;;;;;6.13;4.60;;;;;;;17.30;85.74;100536.41;676758;29;4421;-81
2021/07/27 00:38:49;;;;;;;5.70;4.50;;;;;;;17.32;85.31;100539.00;681326;28;1512;-81
2021/07/27 00:39:09;;;;;;;5.70;4.75;;;;;;;17.33;85.25;100527.53;677232;29;1359;-81
2021/07/27 00:39:30;;;;;;;5.87;4.60;;;;;;;17.32;85.12;100537.25;678760;29;1543;-81
2021/07/27 00:39:51;;;;;;;7.60;4.90;;;;;;;17.28;85.60;100545.31;678981;29;1602;-81
2021/07/27 00:40:13;;;;;;;6.37;4.70;;;;;;;17.25;86.13;100534.84;675391;29;3926;-81
2021/07/27 00:40:38;;;;;;;5.68;4.40;;;;;;;17.23;86.41;100537.56;670732;29;1350;-80
2021/07/27 00:40:58;;;;;;;5.72;4.75;;;;;;;17.19;86.47;100541.22;677782;29;4104;-81
2021/07/27 00:41:19;;;;;;;6.73;4.73;;;;;;;17.19;86.38;100541.22;678897;29;1963;-81
2021/07/27 00:41:39;;;;;;;7.07;5.00;;;;;;;17.20;85.73;100532.38;677231;29;4659;-81
2021/07/27 00:42:00;;;;;;;6.67;4.73;;;;;;;17.18;86.35;100534.19;681068;28;1840;-81
2021/07/27 00:42:21;;;;;;;5.45;4.40;;;;;;;17.19;86.09;100535.94;681079;29;2198;-81
2021/07/27 00:42:43;;;;;;;5.90;4.43;;;;;;;17.18;86.33;100529.81;677915;29;1273;-81
2021/07/27 00:43:06;;;;;;;5.88;4.60;;;;;;;17.22;85.20;100535.81;678940;29;1357;-81
2021/07/27 00:43:26;;;;;;;6.95;4.65;;;;;;;17.20;85.97;100535.03;680065;28;1654;-81
2021/07/27 00:43:47;;;;;;;6.10;4.60;;;;;;;17.15;86.31;100529.88;679615;28;3993;-81
2021/07/27 00:44:07;;;;;;;6.00;4.70;;;;;;;17.13;86.12;100530.88;677388;29;1666;-80
2021/07/27 00:44:28;;;;;;;6.33;4.57;;;;;;;17.15;86.03;100531.66;680407;28;4367;-81
2021/07/27 00:44:48;;;;;;;5.70;4.70;;;;;;;17.14;86.16;100532.56;677324;29;4334;-81
2021/07/27 00:45:09;;;;;;;6.65;4.90;;;;;;;17.10;86.59;100534.47;677655;29;1456;-81
2021/07/27 00:45:30;;;;;;;6.47;4.63;;;;;;;17.10;86.14;100533.59;680405;29;2500;-81
2021/07/27 00:45:50;;;;;;;6.47;4.90;;;;;;;17.11;86.66;100537.97;681167;28;1098;-81
2021/07/27 00:46:11;;;;;;;6.05;4.88;;;;;;;17.09;86.48;100534.53;683874;28;1424;-81
2021/07/27 00:46:31;;;;;;;6.00;4.60;;;;;;;17.06;86.74;100538.13;681449;28;1319;-81
2021/07/27 00:46:51;;;;;;;5.80;4.78;;;;;;;17.05;86.90;100543.47;681131;28;1310;-81
2021/07/27 00:47:12;;;;;;;7.43;4.70;;;;;;;17.02;86.63;100541.78;676200;29;1711;-80
2021/07/27 00:47:32;;;;;;;6.83;4.90;;;;;;;17.02;86.96;100528.59;677182;29;4434;-81
2021/07/27 00:47:53;;;;;;;6.07;4.53;;;;;;;17.07;86.05;100534.59;677558;29;3437;-81
2021/07/27 00:48:13;;;;;;;5.90;4.60;;;;;;;17.18;85.21;100534.19;678930;29;1965;-81
2021/07/27 00:48:33;;;;;;;5.70;4.35;;;;;;;17.23;85.36;100531.41;678311;29;2202;-81
2021/07/27 00:48:54;;;;;;;5.70;4.60;;;;;;;17.23;86.19;100542.00;681183;28;1558;-81
2021/07/27 00:49:14;;;;;;;6.27;4.70;;;;;;;17.17;86.25;100540.44;680783;29;3845;-81
2021/07/27 00:49:35;;;;;;;6.37;4.47;;;;;;;17.11;85.90;100537.97;679182;28;1089;-81
2021/07/27 00:49:56;;;;;;;5.93;4.60;;;;;;;17.13;85.95;100544.09;684605;28;1466;-81
2021/07/27 00:50:16;;;;;;;7.15;4.80;;;;;;;17.12;86.24;100550.28;685539;28;1806;-81
2021/07/27 00:50:38;;;;;;;7.07;4.73;;;;;;;17.06;86.62;100546.06;678970;28;5246;-81
2021/07/27 00:50:58;;;;;;;6.05;4.65;;;;;;;17.02;86.47;100547.06;683241;28;1220;-80
2021/07/27 00:51:19;;;;;;;6.90;4.80;;;;;;;17.00;86.58;100549.78;678566;29;4001;-81
2021/07/27 00:51:40;;;;;;;6.82;4.80;;;;;;;17.01;86.11;100548.84;677878;29;1803;-81
2021/07/27 00:52:00;;;;;;;6.00;4.60;;;;;;;17.02;86.85;100540.00;677968;29;3327;-81
2021/07/27 00:52:21;;;;;;;6.13;4.73;;;;;;;17.00;86.92;100547.13;676235;29;4153;-81
2021/07/27 00:52:42;;;;;;;5.97;4.97;;;;;;;17.04;86.13;100547.88;681783;28;2276;-81
2021/07/27 00:53:03;;;;;;;5.70;4.32;;;;;;;17.10;86.25;100544.16;684344;28;1205;-81
2021/07/27 00:53:24;;;;;;;6.80;4.80;;;;;;;17.09;86.23;100547.75;684407;28;2632;-81
2021/07/27 00:53:44;;;;;;;6.00;4.63;;;;;;;17.10;86.40;100546.81;683616;28;4365;-81
2021/07/27 00:54:07;;;;;;;6.63;4.60;;;;;;;17.08;86.31;100538.09;682673;28;1700;-81
2021/07/27 00:54:27;;;;;;;6.88;4.43;;;;;;;17.05;86.38;100538.19;684034;28;1259;-81
2021/07/27 00:54:47;;;;;;;6.23;4.40;;;;;;;17.03;86.63;100554.09;683856;28;2416;-81
2021/07/27 00:55:09;;;;;;;6.43;4.70;;;;;;;17.00;86.77;100543.59;681455;28;3997;-81
2021/07/27 00:55:30;;;;;;;6.43;4.78;;;;;;;17.01;86.36;100548.00;681862;28;1794;-81
2021/07/27 00:55:51;;;;;;;6.00;4.40;;;;;;;17.08;86.27;100556.56;675892;29;1453;-81
2021/07/27 00:56:11;;;;;;;5.80;4.27;;;;;;;17.05;87.31;100543.47;675497;29;1408;-81
2021/07/27 00:56:33;;;;;;;6.53;4.47;;;;;;;17.04;86.77;100545.22;679460;28;4507;-81
2021/07/27 00:56:54;;;;;;;6.47;4.50;;;;;;;17.03;86.49;100543.53;680314;28;2825;-81
2021/07/27 00:57:16;;;;;;;6.72;4.50;;;;;;;17.05;86.35;100549.63;678662;29;1445;-81
2021/07/27 00:57:38;;;;;;;6.47;4.72;;;;;;;17.06;86.40;100550.47;678831;29;3649;-82
2021/07/27 00:57:59;;;;;;;7.05;4.63;;;;;;;17.06;86.59;100547.81;679194;29;1739;-80
2021/07/27 00:58:19;;;;;;;6.70;4.87;;;;;;;17.11;86.09;100544.13;682604;28;3803;-81
2021/07/27 00:58:39;;;;;;;6.30;4.65;;;;;;;17.15;85.20;100547.53;682974;28;1209;-81
2021/07/27 00:59:00;;;;;;;5.83;4.57;;;;;;;17.17;86.60;100546.56;680198;28;1699;-81
2021/07/27 00:59:20;;;;;;;6.53;4.72;;;;;;;17.14;86.81;100543.16;677547;29;1555;-81
2021/07/27 00:59:41;;;;;;;6.57;4.90;;;;;;;17.15;86.14;100550.16;671101;28;4427;-81
2021/07/27 01:00:02;;;;;;;6.53;5.10;;;;;;;17.19;85.24;100551.78;673573;29;1327;-81
2021/07/27 01:00:24;;;;;;;6.47;4.82;;;;;;;17.25;84.72;100554.22;675214;29;1316;-81
2021/07/27 01:00:44;;;;;;;6.13;4.57;;;;;;;17.23;85.84;100548.13;677565;29;2536;-81
2021/07/27 01:01:05;;;;;;;5.93;4.70;;;;;;;17.23;85.61;100542.84;677741;29;1955;-80
2021/07/27 01:01:25;;;;;;;7.03;4.63;;;;;;;17.23;85.63;100552.56;678408;29;3949;-80
2021/07/27 01:01:46;;;;;;;6.20;4.35;;;;;;;17.19;86.46;100551.78;676128;29;1143;-81
2021/07/27 01:02:06;;;;;;;6.17;4.60;;;;;;;17.16;86.39;100544.81;676353;29;2802;-80
2021/07/27 01:02:29;;;;;;;5.77;4.50;;;;;;;17.17;85.85;100553.63;675829;29;4393;-81
2021/07/27 01:02:50;;;;;;;5.50;4.28;;;;;;;17.21;85.05;100549.97;674027;29;5138;-82
2021/07/27 01:03:11;;;;;;;5.22;4.13;;;;;;;17.25;85.56;100545.41;679268;29;1326;-81
2021/07/27 01:03:32;;;;;;;5.30;4.27;;;;;;;17.25;86.02;100540.13;678393;29;1259;-81
2021/07/27 01:03:52;;;;;;;5.47;4.60;;;;;;;17.23;86.07;100550.75;676308;29;1252;-81
2021/07/27 01:04:13;;;;;;;6.45;4.80;;;;;;;17.18;86.26;100550.94;677141;29;2208;-81
2021/07/27 01:04:33;;;;;;;5.97;4.77;;;;;;;17.17;86.07;100551.84;671607;29;3569;-81
2021/07/27 01:04:53;;;;;;;6.05;4.72;;;;;;;17.17;85.55;100548.34;674098;29;1401;-80
2021/07/27 01:05:14;;;;;;;6.70;4.63;;;;;;;17.18;85.55;100547.41;676123;29;3571;-81
2021/07/27 01:05:35;;;;;;;6.60;4.50;;;;;;;17.17;86.23;100545.72;672515;29;4598;-80
2021/07/27 01:05:55;;;;;;;6.88;4.90;;;;;;;17.14;86.18;100548.44;673406;29;3906;-81
2021/07/27 01:06:16;;;;;;;6.97;4.87;;;;;;;17.11;86.36;100552.06;674921;29;1772;-81
2021/07/27 01:06:36;;;;;;;6.30;4.50;;;;;;;17.13;86.08;100542.28;673292;29;1630;-81
2021/07/27 01:06:57;;;;;;;6.82;4.65;;;;;;;17.12;86.29;100545.00;672357;29;1685;-80
2021/07/27 01:07:20;;;;;;;5.82;4.50;;;;;;;17.13;86.31;100546.72;678918;29;1886;-81
2021/07/27 01:07:42;;;;;;;5.60;4.75;;;;;;;17.13;86.32;100547.56;680707;28;4421;-80
2021/07/27 01:08:04;;;;;;;5.80;4.60;;;;;;;17.17;85.76;100546.56;680814;29;1987;-81
2021/07/27 01:08:24;;;;;;;6.47;4.90;;;;;;;17.19;85.84;100541.22;681545;29;3319;-81
2021/07/27 01:08:45;;;;;;;7.10;5.07;;;;;;;17.19;85.45;100541.22;682219;28;4488;-80
2021/07/27 01:09:06;;;;;;;6.80;4.80;;;;;;;17.18;85.65;100540.38;683191;28;1410;-80
2021/07/27 01:09:26;;;;;;;7.18;4.80;;;;;;;17.18;85.64;100556.22;680520;29;3003;-80
2021/07/27 01:09:49;;;;;;;6.63;4.90;;;;;;;17.18;86.29;100544.75;680504;28;1771;-81
2021/07/27 01:10:12;;;;;;;6.90;5.10;;;;;;;17.26;85.57;100548.00;680930;28;2894;-81
2021/07/27 01:10:33;;;;;;;6.38;5.10;;;;;;;17.35;85.07;100549.50;682226;28;1648;-81
2021/07/27 01:10:54;;;;;;;7.13;4.80;;;;;;;17.37;85.11;100539.72;678292;29;4162;-81
2021/07/27 01:11:24;;;;;;;7.10;4.90;;;;;;;17.33;85.19;100546.03;679000;29;1610;-81
2021/07/27 01:11:45;;;;;;;6.22;4.82;;;;;;;17.31;85.19;100546.09;675157;29;4877;-80
2021/07/27 01:12:05;;;;;;;5.93;4.87;;;;;;;17.35;84.77;100547.69;676505;29;1675;-81
2021/07/27 01:12:26;;;;;;;6.30;4.70;;;;;;;17.34;84.42;100540.69;680362;29;1469;-81
2021/07/27 01:12:49;;;;;;;6.20;4.70;;;;;;;17.35;84.91;100546.84;681536;28;4012;-80
2021/07/27 01:13:10;;;;;;;6.20;4.88;;;;;;;17.32;85.09;100542.53;678345;29;1839;-81
2021/07/27 01:13:30;;;;;;;6.78;5.00;;;;;;;17.31;84.88;100540.78;678467;29;1446;-81
2021/07/27 01:13:52;;;;;;;6.60;4.80;;;;;;;17.28;86.11;100540.03;678810;29;3931;-81
2021/07/27 01:14:12;;;;;;;6.20;4.53;;;;;;;17.22;86.61;100543.75;676063;29;1689;-81
2021/07/27 01:14:33;;;;;;;5.60;4.60;;;;;;;17.18;86.61;100540.38;677027;29;5128;-81
2021/07/27 01:14:53;;;;;;;6.10;4.80;;;;;;;17.19;86.08;100547.34;678891;29;1237;-81
2021/07/27 01:15:15;;;;;;;5.90;4.75;;;;;;;17.18;86.66;100543.00;677071;29;4220;-81
2021/07/27 01:15:35;;;;;;;6.30;4.90;;;;;;;17.26;86.15;100548.00;678159;29;1527;-80
2021/07/27 01:16:01;;;;;;;7.30;4.90;;;;;;;17.31;85.04;100547.88;675811;29;4338;-81
2021/07/27 01:16:29;;;;;;;6.03;4.93;;;;;;;17.32;85.48;100553.09;670934;29;1882;-81
2021/07/27 01:16:49;;;;;;;6.70;5.00;;;;;;;17.37;85.03;100550.28;673638;29;1471;-81
2021/07/27 01:17:10;;;;;;;6.70;4.73;;;;;;;17.43;84.88;100543.91;679192;29;1770;-81
2021/07/27 01:17:30;;;;;;;6.53;5.05;;;;;;;17.43;84.88;100544.81;676737;28;4540;-81
2021/07/27 01:17:58;;;;;;;6.13;5.00;;;;;;;17.41;84.79;100551.06;680656;28;1517;-81
2021/07/27 01:18:27;;;;;;;6.78;5.10;;;;;;;17.36;85.03;100544.16;676400;28;1727;-80
2021/07/27 01:19:01;;;;;;;7.00;5.10;;;;;;;17.33;85.07;100546.91;670715;29;1671;-81
2021/07/27 01:19:38;;;;;;;7.40;5.07;;;;;;;17.30;85.26;100540.84;681829;28;1361;-80
2021/07/27 01:20:32;;;;;;;5.38;4.38;;;;;;;17.26;86.00;100553.28;677764;29;1434;-80
2021/07/27 01:37:23;;;;;;;6.13;4.70;;;;;;;17.24;86.00;100534.00;680378;28;5057;-81
2021/07/27 01:37:42;;;;;;;6.78;5.20;;;;;;;17.12;85.95;100545.00;678245;29;1587;-81
2021/07/27 01:39:06;;;;;;;6.78;5.43;;;;;;;17.07;86.52;100539.88;677523;28;4352;-81
2021/07/27 01:39:35;;;;;;;7.65;5.10;;;;;;;17.06;86.37;100537.25;682717;28;1475;-81
2021/07/27 01:39:56;;;;;;;7.65;5.07;;;;;;;17.07;86.70;100546.91;679508;29;3720;-81
2021/07/27 01:40:19;;;;;;;7.82;5.30;;;;;;;17.05;87.29;100546.13;680620;29;3938;-81
2021/07/27 01:42:14;;;;;;;7.73;5.50;;;;;;;17.00;86.63;100547.13;678240;29;4362;-81
2021/07/27 01:42:40;;;;;;;7.10;5.00;;;;;;;17.06;86.69;100542.53;682530;28;1740;-81
2021/07/27 01:43:03;;;;;;;6.80;4.65;;;;;;;17.09;86.03;100542.47;682392;28;1637;-81
2021/07/27 01:43:30;;;;;;;6.75;5.03;;;;;;;17.07;86.90;100539.88;680195;29;1183;-81
2021/07/27 01:43:54;;;;;;;6.47;5.18;;;;;;;17.09;85.44;100534.53;680865;28;1409;-81
2021/07/27 01:44:17;;;;;;;6.50;4.95;;;;;;;17.11;86.68;100543.25;683844;28;2284;-81
2021/07/27 01:44:48;;;;;;;6.85;5.60;;;;;;;17.07;87.03;100541.63;678205;28;4474;-80
2021/07/27 01:45:14;;;;;;;7.32;5.05;;;;;;;17.07;86.18;100541.63;679748;29;1338;-80
2021/07/27 01:45:35;;;;;;;7.55;5.40;;;;;;;17.09;86.19;100542.47;679168;29;4395;-81
2021/07/27 01:45:59;;;;;;;7.65;5.50;;;;;;;17.12;85.55;100540.56;676301;29;3431;-80
2021/07/27 01:46:23;;;;;;;7.30;5.38;;;;;;;17.16;86.22;100541.34;676558;29;1466;-81
2021/07/27 01:46:52;;;;;;;7.68;5.40;;;;;;;17.13;86.78;100533.53;676668;29;1269;-80
2021/07/27 01:47:25;;;;;;;7.38;5.72;;;;;;;17.11;86.64;100537.97;678538;29;1879;-80
2021/07/27 01:47:49;;;;;;;7.10;5.82;;;;;;;17.07;86.86;100536.34;677688;29;4862;-80
2021/07/27 01:48:15;;;;;;;7.65;6.00;;;;;;;17.07;86.27;100533.72;684296;28;1443;-80
2021/07/27 01:48:39;;;;;;;7.80;5.70;;;;;;;17.11;85.95;100540.63;680928;28;1257;-80
2021/07/27 01:49:04;;;;;;;7.35;5.90;;;;;;;17.11;86.68;100532.69;680807;28;1517;-79
2021/07/27 01:49:26;;;;;;;7.25;5.80;;;;;;;17.04;86.90;100541.75;681401;28;1463;-80
2021/07/27 01:49:53;;;;;;;7.20;5.50;;;;;;;17.01;86.86;100548.00;682565;28;1380;-80
2021/07/27 01:50:16;;;;;;;7.53;5.88;;;;;;;16.98;86.70;100538.38;682584;28;3796;-80
2021/07/27 01:50:37;;;;;;;6.40;5.25;;;;;;;17.03;86.02;100546.16;674695;29;4509;-80
2021/07/27 01:51:03;;;;;;;7.13;5.55;;;;;;;17.02;87.13;100542.66;674639;29;1548;-81
2021/07/27 01:51:26;;;;;;;7.60;5.88;;;;;;;17.02;86.83;100542.66;677188;29;1521;-81
2021/07/27 01:51:54;;;;;;;7.47;5.80;;;;;;;16.99;87.46;100534.84;672991;29;3368;-80
2021/07/27 01:52:24;;;;;;;7.28;5.68;;;;;;;17.00;86.96;100544.50;672819;29;4090;-80
2021/07/27 01:52:47;;;;;;;7.43;5.78;;;;;;;17.02;86.35;100542.66;674970;29;1447;-80
2021/07/27 01:53:10;;;;;;;7.07;5.63;;;;;;;17.00;87.24;100535.69;678161;29;1584;-80
2021/07/27 01:53:50;;;;;;;7.47;5.85;;;;;;;16.95;87.63;100538.50;677086;29;4437;-80
2021/07/27 01:54:16;;;;;;;7.43;5.80;;;;;;;16.95;86.85;100533.22;681231;28;5051;-81
2021/07/27 01:54:54;;;;;;;7.43;5.82;;;;;;;16.94;87.63;100539.41;675234;29;1870;-81
2021/07/27 01:55:18;;;;;;;8.40;6.20;;;;;;;16.90;87.70;100539.56;677964;29;1968;-80
2021/07/27 01:55:39;;;;;;;8.82;6.30;;;;;;;16.88;87.55;100523.75;679596;29;1352;-80
2021/07/27 01:56:06;;;;;;;8.85;6.65;;;;;;;16.93;86.92;100535.03;675225;29;3571;-80
2021/07/27 01:56:30;;;;;;;7.78;6.22;;;;;;;16.93;87.28;100540.31;677081;28;4339;-80
2021/07/27 01:56:54;;;;;;;8.07;6.80;;;;;;;16.92;87.29;100535.97;679001;28;4735;-80
2021/07/27 01:57:24;;;;;;;7.68;6.60;;;;;;;16.93;87.07;100535.03;677836;29;1372;-80
2021/07/27 01:57:50;;;;;;;8.40;5.82;;;;;;;16.88;87.56;100538.69;675498;29;2612;-80
2021/07/27 01:58:17;;;;;;;8.13;6.10;;;;;;;16.85;87.04;100543.19;680624;29;1565;-80
2021/07/27 01:58:38;;;;;;;7.68;5.57;;;;;;;16.92;86.50;100537.72;678084;29;1415;-80
2021/07/27 01:58:59;;;;;;;7.72;5.78;;;;;;;16.91;87.52;100539.50;678480;29;1454;-80
2021/07/27 01:59:21;;;;;;;8.50;6.10;;;;;;;16.83;87.82;100538.88;675195;29;1560;-80
2021/07/27 01:59:44;;;;;;;8.07;6.07;;;;;;;16.79;87.77;100537.22;673701;29;4442;-80
2021/07/27 02:00:12;;;;;;;8.48;6.10;;;;;;;16.80;87.48;100528.41;680240;29;2352;-80
2021/07/27 02:00:38;;;;;;;8.98;6.45;;;;;;;16.83;87.50;100536.22;677505;29;4108;-80
2021/07/27 02:00:59;;;;;;;9.20;6.30;;;;;;;16.81;87.73;100535.44;675010;29;1938;-81
2021/07/27 02:01:27;;;;;;;8.93;6.45;;;;;;;16.81;87.97;100531.00;675176;29;1486;-80
2021/07/27 02:01:53;;;;;;;8.55;6.45;;;;;;;16.80;88.19;100534.53;681960;28;1406;-80
2021/07/27 02:02:13;;;;;;;8.40;6.47;;;;;;;16.79;88.14;100537.22;680989;28;1717;-80
2021/07/27 02:02:40;;;;;;;7.82;6.35;;;;;;;16.79;87.78;100543.38;679653;28;4332;-80
2021/07/27 02:03:06;;;;;;;7.95;6.30;;;;;;;16.78;88.12;100538.13;677108;29;1284;-80
2021/07/27 02:03:27;;;;;;;8.02;6.35;;;;;;;16.75;88.52;100535.59;676546;29;1381;-80
2021/07/27 02:03:50;;;;;;;8.68;6.25;;;;;;;16.74;87.85;100539.16;672402;29;3610;-80
2021/07/27 02:04:11;;;;;;;8.98;6.50;;;;;;;16.72;88.48;100535.72;670026;29;3841;-80
2021/07/27 02:04:31;;;;;;;8.20;6.20;;;;;;;16.73;87.88;100533.03;672735;29;3111;-80